Wewahitchka, Florida
Current Conditions -  °F | °C
As of 4:56 PM on Monday 22 Dec 2014 (Local Time) from KTDR Reporting Station
Clear Clear  
Wind Chill: 68°   Ceiling: Unl
Heat Index: 68°   Visibility: 8mi
Dew Point: 67°   Wind: 9mph
Humidity: 98%   Direction: 180°S
Pressure: 29.81"   Gusts: NA
Location:  30.11°N, 85.2°W
Report Text: KTDR 222256Z AUTO 18008KT 8SM CLR 20/20 A2981 RMK AO2 LTG DSNT N AND S SLPNO T01990196
Loading
Personal Weather Stations






























Interactive Weather Map New forecast layout! Learn more

10-Day Weather Forecast

Advertisements
Track Severe Weather on mobile